AUA521S LOWW-LIML
Flight info
| Callsign | AUA521S |
|---|---|
| Flight time | 0h 57m |
| Altitude | 34000 |
| Route | OSPEN4C/29 OSPEN DCT ABRUK DCT SETAL DCT DETSA/N0414F350 DCT BAKOR DCT NAXAV DCT RENTA DCT ATPED DCT LUSIL LUSI1Y |
| Aircraft | A320/M-SDE3FGHIRWY/LB1 |
Departure
| Time | 2026-04-30 17:49 |
|---|---|
| Airport | Vienna International Airport (LOWW) |
Arrival
| Time | 2026-04-30 18:46 |
|---|---|
| Airport | Milano Linate Airport (LIML) |
| Time | Latitude | Longitude | Altitude | Speed | Heading |
|---|---|---|---|---|---|
| 2026-04-30 17:39 | 48.11897 | 16.56768 | 609 ft | 0 kts | 206° |
| 2026-04-30 17:42 | 48.11965 | 16.56794 | 625 ft | 4 kts | 142° |
| 2026-04-30 17:43 | 48.11971 | 16.56785 | 625 ft | 0 kts | 116° |
| 2026-04-30 17:44 | 48.11917 | 16.56951 | 622 ft | 22 kts | 116° |
| 2026-04-30 17:46 | 48.11446 | 16.57426 | 621 ft | 15 kts | 201° |
| 2026-04-30 17:47 | 48.11171 | 16.57396 | 615 ft | 11 kts | 112° |
| 2026-04-30 17:48 | 48.10934 | 16.57475 | 609 ft | 17 kts | 289° |
| 2026-04-30 17:48 | 48.11854 | 16.54689 | 881 ft | 165 kts | 300° |
| 2026-04-30 17:49 | 48.09538 | 16.48884 | 3475 ft | 231 kts | 216° |
| 2026-04-30 17:50 | 48.03698 | 16.42078 | 7078 ft | 284 kts | 222° |
| 2026-04-30 17:51 | 47.99422 | 16.35598 | 10189 ft | 302 kts | 229° |
| 2026-04-30 17:52 | 47.94800 | 16.27884 | 11786 ft | 367 kts | 229° |
| 2026-04-30 17:53 | 47.85764 | 16.13016 | 16196 ft | 403 kts | 229° |
| 2026-04-30 17:54 | 47.77971 | 16.00298 | 19394 ft | 428 kts | 229° |
| 2026-04-30 17:55 | 47.69780 | 15.86980 | 21858 ft | 444 kts | 229° |
| 2026-04-30 17:56 | 47.61287 | 15.73233 | 23925 ft | 459 kts | 229° |
| 2026-04-30 17:57 | 47.54762 | 15.62737 | 25087 ft | 469 kts | 229° |
| 2026-04-30 17:58 | 47.48709 | 15.51238 | 26119 ft | 476 kts | 245° |
| 2026-04-30 17:59 | 47.44636 | 15.32586 | 27530 ft | 483 kts | 257° |
| 2026-04-30 18:00 | 47.40826 | 15.13350 | 28999 ft | 489 kts | 256° |
| 2026-04-30 18:00 | 47.37920 | 14.98702 | 29670 ft | 501 kts | 257° |
| 2026-04-30 18:01 | 47.35949 | 14.88800 | 30429 ft | 503 kts | 257° |
| 2026-04-30 18:02 | 47.32988 | 14.74002 | 31643 ft | 499 kts | 257° |
| 2026-04-30 18:02 | 47.30018 | 14.59328 | 32699 ft | 499 kts | 257° |
| 2026-04-30 18:03 | 47.27043 | 14.44739 | 34034 ft | 492 kts | 258° |
| 2026-04-30 18:04 | 47.24058 | 14.30167 | 34347 ft | 504 kts | 257° |
| 2026-04-30 18:06 | 47.15774 | 13.90395 | 34330 ft | 509 kts | 257° |
| 2026-04-30 18:08 | 47.08412 | 13.55762 | 34298 ft | 507 kts | 257° |
| 2026-04-30 18:10 | 46.99932 | 13.16451 | 34252 ft | 505 kts | 257° |
| 2026-04-30 18:11 | 46.92415 | 12.82237 | 34273 ft | 505 kts | 257° |
| 2026-04-30 18:13 | 46.86974 | 12.57836 | 34253 ft | 505 kts | 257° |
| 2026-04-30 18:14 | 46.81479 | 12.33511 | 34263 ft | 504 kts | 256° |
| 2026-04-30 18:15 | 46.72393 | 12.05534 | 34667 ft | 507 kts | 247° |
| 2026-04-30 18:16 | 46.69192 | 11.96419 | 35117 ft | 504 kts | 247° |
| 2026-04-30 18:16 | 46.66007 | 11.87342 | 35218 ft | 503 kts | 247° |
| 2026-04-30 18:17 | 46.62820 | 11.78300 | 35218 ft | 502 kts | 246° |
| 2026-04-30 18:18 | 46.58035 | 11.64811 | 35195 ft | 503 kts | 246° |
| 2026-04-30 18:18 | 46.54833 | 11.55825 | 35210 ft | 499 kts | 246° |
| 2026-04-30 18:19 | 46.51636 | 11.46868 | 35209 ft | 500 kts | 246° |
| 2026-04-30 18:19 | 46.48438 | 11.37922 | 35201 ft | 500 kts | 246° |
| 2026-04-30 18:20 | 46.45237 | 11.28977 | 35167 ft | 499 kts | 247° |
| 2026-04-30 18:20 | 46.42138 | 11.19987 | 35237 ft | 498 kts | 248° |
| 2026-04-30 18:21 | 46.39094 | 11.10989 | 35309 ft | 497 kts | 248° |
| 2026-04-30 18:21 | 46.36015 | 11.02037 | 35316 ft | 496 kts | 248° |
| 2026-04-30 18:22 | 46.32916 | 10.93121 | 35305 ft | 496 kts | 247° |
| 2026-04-30 18:22 | 46.28265 | 10.79791 | 35268 ft | 494 kts | 248° |
| 2026-04-30 18:23 | 46.25189 | 10.70922 | 35276 ft | 493 kts | 248° |
| 2026-04-30 18:23 | 46.22115 | 10.62080 | 35278 ft | 492 kts | 247° |
| 2026-04-30 18:24 | 46.17482 | 10.48872 | 35268 ft | 492 kts | 247° |
| 2026-04-30 18:25 | 46.14400 | 10.40143 | 35274 ft | 491 kts | 247° |
| 2026-04-30 18:25 | 46.09757 | 10.27017 | 35278 ft | 486 kts | 247° |
| 2026-04-30 18:26 | 46.06719 | 10.18456 | 34103 ft | 478 kts | 246° |
| 2026-04-30 18:26 | 46.04931 | 10.14405 | 33309 ft | 482 kts | 236° |
| 2026-04-30 18:26 | 46.02670 | 10.10832 | 32538 ft | 485 kts | 224° |
| 2026-04-30 18:27 | 45.97158 | 10.05306 | 31058 ft | 483 kts | 212° |
| 2026-04-30 18:27 | 45.94300 | 10.02773 | 30342 ft | 481 kts | 212° |
| 2026-04-30 18:28 | 45.88628 | 9.97751 | 28724 ft | 476 kts | 212° |
| 2026-04-30 18:28 | 45.85809 | 9.95261 | 27942 ft | 474 kts | 212° |
| 2026-04-30 18:28 | 45.80204 | 9.90304 | 26253 ft | 474 kts | 212° |
| 2026-04-30 18:29 | 45.77400 | 9.87826 | 25395 ft | 474 kts | 213° |
| 2026-04-30 18:29 | 45.68979 | 9.80420 | 22693 ft | 472 kts | 212° |
| 2026-04-30 18:30 | 45.64344 | 9.76343 | 21175 ft | 469 kts | 213° |
| 2026-04-30 18:30 | 45.58222 | 9.70407 | 19180 ft | 446 kts | 217° |
| 2026-04-30 18:31 | 45.55696 | 9.67810 | 18329 ft | 438 kts | 217° |
| 2026-04-30 18:31 | 45.50858 | 9.62849 | 16433 ft | 424 kts | 217° |
| 2026-04-30 18:32 | 45.46090 | 9.58084 | 14713 ft | 413 kts | 216° |
| 2026-04-30 18:32 | 45.43711 | 9.55738 | 13854 ft | 408 kts | 215° |
| 2026-04-30 18:32 | 45.39140 | 9.51249 | 12056 ft | 396 kts | 214° |
| 2026-04-30 18:33 | 45.36890 | 9.49035 | 11188 ft | 390 kts | 214° |
| 2026-04-30 18:33 | 45.32434 | 9.44887 | 9446 ft | 376 kts | 204° |
| 2026-04-30 18:33 | 45.29971 | 9.43817 | 8537 ft | 367 kts | 187° |
| 2026-04-30 18:34 | 45.27457 | 9.43725 | 7662 ft | 358 kts | 174° |
| 2026-04-30 18:34 | 45.22574 | 9.44256 | 5920 ft | 346 kts | 174° |
| 2026-04-30 18:34 | 45.20199 | 9.44510 | 5036 ft | 340 kts | 174° |
| 2026-04-30 18:35 | 45.17858 | 9.44757 | 4139 ft | 334 kts | 174° |
| 2026-04-30 18:35 | 45.16298 | 9.44921 | 3625 ft | 329 kts | 173° |
| 2026-04-30 18:35 | 45.14058 | 9.45156 | 3350 ft | 320 kts | 174° |
| 2026-04-30 18:36 | 45.09665 | 9.45620 | 3255 ft | 319 kts | 173° |
| 2026-04-30 18:36 | 45.07451 | 9.45855 | 3249 ft | 319 kts | 173° |
| 2026-04-30 18:36 | 45.03025 | 9.46324 | 3248 ft | 319 kts | 173° |
| 2026-04-30 18:37 | 45.00808 | 9.46234 | 3249 ft | 322 kts | 192° |
| 2026-04-30 18:37 | 44.98835 | 9.44744 | 3236 ft | 329 kts | 220° |
| 2026-04-30 18:37 | 44.97580 | 9.42038 | 3237 ft | 336 kts | 250° |
| 2026-04-30 18:37 | 44.97169 | 9.38803 | 3236 ft | 337 kts | 267° |
| 2026-04-30 18:38 | 44.97497 | 9.35603 | 3246 ft | 317 kts | 295° |
| 2026-04-30 18:38 | 44.98734 | 9.33331 | 3252 ft | 279 kts | 328° |
| 2026-04-30 18:38 | 45.00468 | 9.32406 | 3244 ft | 263 kts | 356° |
| 2026-04-30 18:38 | 45.02224 | 9.32276 | 3199 ft | 246 kts | 360° |
| 2026-04-30 18:39 | 45.03900 | 9.32122 | 3082 ft | 239 kts | 359° |
| 2026-04-30 18:39 | 45.05555 | 9.31943 | 3013 ft | 240 kts | 359° |
| 2026-04-30 18:39 | 45.07232 | 9.31756 | 3019 ft | 243 kts | 359° |
| 2026-04-30 18:39 | 45.08918 | 9.31566 | 3019 ft | 243 kts | 358° |
| 2026-04-30 18:40 | 45.10610 | 9.31377 | 3020 ft | 244 kts | 358° |
| 2026-04-30 18:40 | 45.12299 | 9.31189 | 3019 ft | 243 kts | 358° |
| 2026-04-30 18:40 | 45.13990 | 9.31002 | 3019 ft | 244 kts | 358° |
| 2026-04-30 18:40 | 45.15685 | 9.30816 | 3019 ft | 244 kts | 358° |
| 2026-04-30 18:41 | 45.17369 | 9.30628 | 3016 ft | 243 kts | 358° |
| 2026-04-30 18:41 | 45.19058 | 9.30438 | 3016 ft | 244 kts | 359° |
| 2026-04-30 18:41 | 45.20748 | 9.30255 | 3009 ft | 244 kts | 358° |
| 2026-04-30 18:41 | 45.22442 | 9.30075 | 3014 ft | 244 kts | 358° |
| 2026-04-30 18:42 | 45.24135 | 9.29894 | 3016 ft | 244 kts | 358° |
| 2026-04-30 18:42 | 45.27509 | 9.29532 | 3032 ft | 235 kts | 358° |
| 2026-04-30 18:42 | 45.29082 | 9.29362 | 3022 ft | 219 kts | 358° |
| 2026-04-30 18:45 | 45.40577 | 9.28130 | 950 ft | 137 kts | 359° |
| 2026-04-30 18:45 | 45.41519 | 9.28029 | 769 ft | 136 kts | 358° |
| 2026-04-30 18:45 | 45.42460 | 9.27927 | 589 ft | 135 kts | 359° |
| 2026-04-30 18:46 | 45.43397 | 9.27831 | 416 ft | 135 kts | 358° |
| 2026-04-30 18:46 | 45.44272 | 9.27734 | 365 ft | 113 kts | 355° |
| 2026-04-30 18:46 | 45.44934 | 9.27660 | 368 ft | 79 kts | 355° |
| 2026-04-30 18:46 | 45.45261 | 9.27640 | 358 ft | 27 kts | 9° |
| 2026-04-30 18:47 | 45.45421 | 9.27745 | 364 ft | 16 kts | 34° |
| 2026-04-30 18:47 | 45.45456 | 9.27816 | 360 ft | 12 kts | 75° |
| 2026-04-30 18:47 | 45.45466 | 9.27957 | 364 ft | 15 kts | 54° |
| 2026-04-30 18:47 | 45.45569 | 9.27979 | 360 ft | 16 kts | 1° |
| 2026-04-30 18:48 | 45.45685 | 9.27980 | 360 ft | 18 kts | 0° |
| 2026-04-30 18:48 | 45.45770 | 9.27983 | 360 ft | 7 kts | 1° |
| 2026-04-30 18:48 | 45.45818 | 9.27984 | 360 ft | 8 kts | 1° |
| 2026-04-30 18:48 | 45.45900 | 9.27975 | 365 ft | 11 kts | 337° |
| 2026-04-30 18:49 | 45.45962 | 9.27967 | 360 ft | 4 kts | 1° |
| 2026-04-30 18:49 | 45.45974 | 9.27967 | 360 ft | 0 kts | 0° |